Time;durP1;ratioP1;P1;durP2;ratioP2;P2;SDS_P1;SDS_P2;PMS_P1;PMS_P2;Temp;Humidity;BMP_temperature;BMP_pressure;BME280_temperature;BME280_humidity;BME280_pressure;Samples;Min_cycle;Max_cycle;Signal;HPM_P1;HPM_P2
2023/07/09 04:04:20;;;;;;;2.87;1.87;;;18.90;99.90;;;;;;6087271;23;20439;-59
2023/07/09 04:06:46;;;;;;;4.07;2.53;;;18.90;99.90;;;;;;4973454;28;20463;-59
2023/07/09 04:09:12;;;;;;;1.83;1.73;;;18.90;99.90;;;;;;4974978;28;20820;-59
2023/07/09 04:11:38;;;;;;;1.60;1.50;;;19.00;99.90;;;;;;4974785;28;20400;-59
2023/07/09 04:14:04;;;;;;;2.27;2.10;;;19.00;99.90;;;;;;4974560;28;20203;-59
2023/07/09 04:16:29;;;;;;;2.20;2.00;;;19.10;99.90;;;;;;4974958;28;20219;-60
2023/07/09 04:18:55;;;;;;;2.60;2.40;;;19.10;99.90;;;;;;4974946;28;20195;-60
2023/07/09 04:21:20;;;;;;;1.77;1.50;;;19.10;99.90;;;;;;4974831;28;20188;-59
2023/07/09 04:23:46;;;;;;;2.13;2.03;;;19.20;99.90;;;;;;4974316;28;20590;-59
2023/07/09 04:26:15;;;;;;;2.37;2.20;;;19.30;99.90;;;;;;4974642;28;20218;-59
2023/07/09 04:28:40;;;;;;;1.70;1.60;;;19.40;99.90;;;;;;4974036;28;20203;-59
2023/07/09 04:31:06;;;;;;;2.53;2.33;;;19.50;99.90;;;;;;4974698;28;20408;-59
2023/07/09 04:33:31;;;;;;;1.60;1.50;;;19.60;99.90;;;;;;4974227;28;20176;-59
2023/07/09 04:35:57;;;;;;;4.67;2.43;;;19.80;99.90;;;;;;4973590;28;20191;-59
2023/07/09 04:38:23;;;;;;;2.60;2.40;;;20.00;99.90;;;;;;4974693;28;20179;-58
2023/07/09 04:40:48;;;;;;;1.80;1.70;;;20.20;99.90;;;;;;4974684;28;20180;-58
2023/07/09 04:43:14;;;;;;;2.77;2.63;;;20.40;99.90;;;;;;4974273;28;20208;-58
2023/07/09 04:45:40;;;;;;;2.60;2.40;;;20.70;99.90;;;;;;4974345;28;20606;-58
2023/07/09 04:48:06;;;;;;;3.60;2.40;;;20.90;99.90;;;;;;4974534;28;20438;-58
2023/07/09 04:50:32;;;;;;;1.83;1.73;;;21.10;99.90;;;;;;4974491;28;20287;-58
2023/07/09 04:52:59;;;;;;;1.70;1.60;;;21.40;99.90;;;;;;4974526;28;20435;-57
2023/07/09 04:55:26;;;;;;;2.37;2.17;;;21.60;99.90;;;;;;4956746;28;20207;-58
2023/07/09 04:57:52;;;;;;;2.73;2.10;;;21.80;99.90;;;;;;4957055;28;20495;-58
2023/07/09 05:00:18;;;;;;;1.93;1.83;;;21.90;99.90;;;;;;4974291;28;20515;-58
2023/07/09 05:02:44;;;;;;;1.63;1.53;;;21.90;99.90;;;;;;4974273;28;20196;-59
2023/07/09 05:05:11;;;;;;;1.47;1.47;;;21.90;99.90;;;;;;4974097;28;20471;-60
2023/07/09 05:07:37;;;;;;;1.80;1.70;;;21.90;99.90;;;;;;4974457;28;20229;-59
2023/07/09 05:10:03;;;;;;;1.80;1.70;;;22.00;99.90;;;;;;4974353;28;20918;-58
2023/07/09 05:12:28;;;;;;;2.63;2.53;;;22.00;99.90;;;;;;4974258;28;20436;-59
2023/07/09 05:14:56;;;;;;;1.80;1.70;;;22.00;99.90;;;;;;4973805;28;20199;-59
2023/07/09 05:17:23;;;;;;;1.70;1.60;;;22.10;99.90;;;;;;4974281;28;20230;-58
2023/07/09 05:19:49;;;;;;;1.63;1.53;;;22.10;99.90;;;;;;4974352;28;20420;-58
2023/07/09 05:22:15;;;;;;;2.33;2.00;;;22.10;99.90;;;;;;4974404;28;20458;-57
2023/07/09 05:24:41;;;;;;;1.57;1.47;;;22.20;99.90;;;;;;4973854;28;20584;-58
2023/07/09 05:27:06;;;;;;;1.87;1.77;;;22.40;99.90;;;;;;4974278;28;20167;-58
2023/07/09 05:29:32;;;;;;;2.17;2.00;;;22.50;99.90;;;;;;4974189;28;20424;-57
2023/07/09 05:31:58;;;;;;;2.33;2.20;;;22.60;99.90;;;;;;4974188;28;20293;-58
2023/07/09 05:34:23;;;;;;;1.83;1.73;;;22.70;99.90;;;;;;4973602;28;20191;-57
2023/07/09 05:36:49;;;;;;;2.10;1.93;;;22.80;99.90;;;;;;4974013;28;20531;-59
2023/07/09 05:39:16;;;;;;;1.93;1.83;;;22.90;99.90;;;;;;4975428;28;20203;-59
2023/07/09 05:41:41;;;;;;;2.77;2.57;;;23.20;99.90;;;;;;4977430;28;20239;-59
2023/07/09 05:44:07;;;;;;;1.60;1.50;;;23.60;99.90;;;;;;4977390;28;20383;-59
2023/07/09 05:46:37;;;;;;;6.53;2.13;;;23.80;99.40;;;;;;4959887;28;20176;-59
2023/07/09 05:49:04;;;;;;;2.07;1.87;;;24.00;99.30;;;;;;4959873;28;20242;-59
2023/07/09 05:51:29;;;;;;;2.63;2.43;;;24.10;98.70;;;;;;4977417;28;20407;-59
2023/07/09 05:53:55;;;;;;;2.40;2.20;;;24.20;98.40;;;;;;4976982;28;20785;-59
2023/07/09 05:56:21;;;;;;;2.07;1.97;;;24.30;98.00;;;;;;4977167;28;20195;-59
2023/07/09 05:58:47;;;;;;;1.63;1.53;;;24.60;97.80;;;;;;4977017;28;20177;-59
2023/07/09 06:01:13;;;;;;;3.40;3.20;;;24.60;97.90;;;;;;4977008;28;20191;-59
2023/07/09 06:03:39;;;;;;;2.00;1.90;;;24.70;97.40;;;;;;4976606;28;20459;-59
2023/07/09 06:06:06;;;;;;;2.53;2.33;;;24.70;97.60;;;;;;4976823;28;20219;-59
2023/07/09 06:08:32;;;;;;;1.87;1.73;;;24.60;97.30;;;;;;4977086;28;20789;-59
2023/07/09 06:11:02;;;;;;;2.03;1.93;;;24.60;97.20;;;;;;4976887;28;20382;-59
2023/07/09 06:13:30;;;;;;;1.90;1.70;;;24.70;96.70;;;;;;4976712;28;20394;-59
2023/07/09 06:15:56;;;;;;;1.60;1.50;;;24.80;96.70;;;;;;4959350;28;20447;-59
2023/07/09 06:18:24;;;;;;;2.53;1.93;;;24.90;96.60;;;;;;4976626;28;20776;-59
2023/07/09 06:20:56;;;;;;;2.77;1.93;;;24.90;96.70;;;;;;4973304;28;20419;-60
2023/07/09 06:23:22;;;;;;;2.70;2.27;;;25.00;96.70;;;;;;4958297;28;20497;-59
2023/07/09 06:25:48;;;;;;;2.00;1.90;;;25.10;96.40;;;;;;4958127;29;20490;-59
2023/07/09 06:28:19;;;;;;;2.57;2.37;;;25.20;96.40;;;;;;4957994;29;20173;-58
2023/07/09 06:30:46;;;;;;;2.70;2.50;;;25.40;96.10;;;;;;4956210;29;20408;-60
2023/07/09 06:33:13;;;;;;;2.43;2.20;;;25.50;96.10;;;;;;4957499;29;20830;-59
2023/07/09 06:35:45;;;;;;;1.90;1.80;;;25.80;95.90;;;;;;4956992;29;20440;-59
2023/07/09 06:38:11;;;;;;;2.03;1.93;;;26.10;95.50;;;;;;4957259;29;20761;-58
2023/07/09 06:40:36;;;;;;;2.17;2.07;;;26.30;94.50;;;;;;4957766;29;20417;-58
2023/07/09 06:43:02;;;;;;;2.70;2.50;;;26.60;93.90;;;;;;4939671;28;20667;-58
2023/07/09 06:45:27;;;;;;;3.20;2.67;;;26.70;93.60;;;;;;4939388;29;20190;-59
2023/07/09 06:47:53;;;;;;;4.30;2.87;;;26.80;93.60;;;;;;4939521;29;20535;-59
2023/07/09 06:50:19;;;;;;;2.40;2.20;;;26.70;93.60;;;;;;4956346;28;20271;-58
2023/07/09 06:52:44;;;;;;;2.33;2.23;;;26.70;93.20;;;;;;4956807;29;20176;-60
2023/07/09 06:55:10;;;;;;;3.50;2.47;;;26.70;93.10;;;;;;4956342;28;20302;-59
2023/07/09 06:57:36;;;;;;;3.03;2.40;;;26.80;93.40;;;;;;4956601;28;20193;-59
2023/07/09 07:00:03;;;;;;;3.10;2.20;;;26.80;93.10;;;;;;4956659;29;20252;-59
2023/07/09 07:02:29;;;;;;;2.77;2.60;;;26.80;93.00;;;;;;4956695;29;20480;-61
2023/07/09 07:04:55;;;;;;;2.57;2.37;;;26.90;92.60;;;;;;4956290;28;20439;-59
2023/07/09 07:07:22;;;;;;;3.30;3.10;;;27.00;92.60;;;;;;4956382;29;20234;-59
2023/07/09 07:09:47;;;;;;;2.23;2.03;;;27.10;92.00;;;;;;4956566;29;20441;-60
2023/07/09 07:12:25;;;;;;;2.60;2.40;;;27.20;92.10;;;;;;4956257;29;20269;-60
2023/07/09 07:14:50;;;;;;;2.40;2.30;;;27.40;92.10;;;;;;4955798;28;20259;-60
2023/07/09 07:17:16;;;;;;;2.60;2.40;;;27.60;91.70;;;;;;4956120;28;20422;-59
2023/07/09 07:19:42;;;;;;;2.80;2.60;;;27.70;91.10;;;;;;4956049;29;20214;-59
2023/07/09 07:22:08;;;;;;;2.83;2.47;;;27.80;90.80;;;;;;4956377;29;20207;-58
2023/07/09 07:24:33;;;;;;;2.70;2.50;;;27.90;90.60;;;;;;4954307;28;20232;-60
2023/07/09 07:26:59;;;;;;;2.63;2.43;;;28.10;90.60;;;;;;4956445;29;20490;-59
2023/07/09 07:29:24;;;;;;;2.73;2.53;;;28.30;90.40;;;;;;4955797;29;20177;-59
2023/07/09 07:31:50;;;;;;;2.17;1.80;;;28.70;89.90;;;;;;4955994;29;20228;-58
2023/07/09 07:34:16;;;;;;;3.23;2.67;;;29.30;87.80;;;;;;4955462;28;20265;-59
2023/07/09 07:36:41;;;;;;;3.00;2.80;;;30.00;85.50;;;;;;4955983;28;20227;-60
2023/07/09 07:39:07;;;;;;;2.93;2.73;;;30.80;83.30;;;;;;4955972;28;20181;-60
2023/07/09 07:41:32;;;;;;;2.93;2.40;;;31.60;79.70;;;;;;4955947;29;20321;-58
2023/07/09 07:43:58;;;;;;;3.30;3.00;;;32.30;77.20;;;;;;4955603;29;20339;-59
2023/07/09 07:46:23;;;;;;;3.43;3.13;;;33.10;74.60;;;;;;4955792;28;20184;-59
2023/07/09 07:48:49;;;;;;;3.30;3.10;;;34.00;73.10;;;;;;4955849;29;20173;-59
2023/07/09 07:51:15;;;;;;;3.27;3.00;;;35.00;69.70;;;;;;4955901;29;20619;-59
2023/07/09 07:53:41;;;;;;;3.10;2.90;;;36.10;66.90;;;;;;4955430;28;20679;-59
2023/07/09 07:56:07;;;;;;;3.30;3.00;;;37.10;63.10;;;;;;4955786;29;20197;-59
2023/07/09 07:58:32;;;;;;;3.60;3.37;;;37.70;62.10;;;;;;4955950;29;20261;-60
2023/07/09 08:00:58;;;;;;;3.20;3.00;;;38.60;59.30;;;;;;4955587;28;20508;-58
2023/07/09 08:03:24;;;;;;;3.67;3.47;;;39.60;57.20;;;;;;4954514;28;20208;-59
2023/07/09 08:05:50;;;;;;;2.90;2.80;;;40.40;54.70;;;;;;4955454;29;20236;-60
2023/07/09 08:08:16;;;;;;;3.43;3.23;;;40.80;54.20;;;;;;4955611;28;20184;-60
2023/07/09 08:10:41;;;;;;;3.33;3.13;;;40.70;53.80;;;;;;4955660;29;20420;-60
2023/07/09 08:13:07;;;;;;;3.33;2.83;;;41.10;52.80;;;;;;4955399;28;20560;-59
2023/07/09 08:15:34;;;;;;;3.03;2.83;;;41.70;51.90;;;;;;4955143;29;20263;-58
2023/07/09 08:17:59;;;;;;;2.87;2.67;;;41.80;51.20;;;;;;4955511;29;20547;-59
2023/07/09 08:20:25;;;;;;;4.03;3.00;;;41.30;51.10;;;;;;4955483;29;20416;-60
2023/07/09 08:22:51;;;;;;;3.17;2.97;;;41.20;50.50;;;;;;4955267;29;20204;-60
2023/07/09 08:25:17;;;;;;;3.30;3.10;;;41.10;50.40;;;;;;4955013;29;20196;-59
2023/07/09 08:27:42;;;;;;;2.90;2.70;;;41.30;50.70;;;;;;4955433;29;20408;-60
2023/07/09 08:30:09;;;;;;;3.30;3.10;;;41.70;49.80;;;;;;4955403;28;20177;-61
2023/07/09 08:32:34;;;;;;;3.03;2.93;;;42.00;49.60;;;;;;4954147;29;20212;-61
2023/07/09 08:35:00;;;;;;;3.20;3.00;;;42.40;49.00;;;;;;4954844;28;20531;-60
2023/07/09 08:37:25;;;;;;;3.27;3.07;;;42.20;48.60;;;;;;4955215;28;20176;-59
2023/07/09 08:39:51;;;;;;;3.17;3.03;;;42.50;48.30;;;;;;4955350;29;20184;-59
2023/07/09 08:42:31;;;;;;;3.23;3.03;;;42.80;47.60;;;;;;4955248;29;20232;-60
2023/07/09 08:44:59;;;;;;;3.50;3.30;;;43.10;47.50;;;;;;4955021;28;20224;-60
2023/07/09 08:47:30;;;;;;;4.50;4.10;;;43.40;47.10;;;;;;4955303;28;20843;-62
2023/07/09 08:50:24;;;;;;;3.40;3.20;;;43.40;47.50;;;;;;4955122;28;20411;-58
2023/07/09 08:52:52;;;;;;;3.60;3.40;;;43.80;46.80;;;;;;4953084;28;20467;-62
2023/07/09 08:55:25;;;;;;;3.00;2.90;;;44.20;45.60;;;;;;4954904;28;20427;-62
2023/07/09 08:57:57;;;;;;;3.20;3.00;;;44.50;45.40;;;;;;4955128;29;20420;-60
2023/07/09 09:00:43;;;;;;;4.17;3.93;;;44.10;45.70;;;;;;4955164;29;20400;-59
2023/07/09 09:03:16;;;;;;;3.93;3.73;;;44.10;45.50;;;;;;4955205;29;20415;-61
2023/07/09 09:05:46;;;;;;;3.97;3.77;;;43.80;46.50;;;;;;4954592;28;20926;-60
2023/07/09 09:08:27;;;;;;;3.70;3.53;;;44.10;46.40;;;;;;4954946;29;20554;-60
2023/07/09 09:11:23;;;;;;;3.47;3.33;;;44.20;45.40;;;;;;4955024;28;20187;-60
2023/07/09 09:13:51;;;;;;;3.88;3.60;;;44.20;45.10;;;;;;4955271;28;20546;-59
2023/07/09 09:16:39;;;;;;;3.30;3.17;;;44.60;44.90;;;;;;4958499;28;20188;-59
2023/07/09 09:19:18;;;;;;;4.00;3.80;;;45.40;44.00;;;;;;4958655;28;20739;-59
2023/07/09 09:21:44;;;;;;;4.13;3.93;;;46.20;43.20;;;;;;4958927;28;20635;-61
2023/07/09 09:24:18;;;;;;;4.95;4.65;;;46.60;42.60;;;;;;4957941;28;20191;-61
2023/07/09 09:26:44;;;;;;;4.18;3.97;;;46.50;42.70;;;;;;4958710;29;20227;-60
2023/07/09 09:29:12;;;;;;;3.55;3.42;;;46.10;43.10;;;;;;4958508;29;20180;-59
2023/07/09 09:31:38;;;;;;;3.90;3.70;;;46.00;42.80;;;;;;4958334;29;20184;-61
2023/07/09 09:34:05;;;;;;;3.95;3.75;;;45.90;42.40;;;;;;4957804;29;20220;-61
2023/07/09 09:36:31;;;;;;;3.78;3.58;;;45.90;42.10;;;;;;4958314;28;20604;-60
2023/07/09 09:39:02;;;;;;;3.55;3.45;;;45.80;42.10;;;;;;4958270;28;20215;-59
2023/07/09 09:41:37;;;;;;;4.15;3.88;;;45.90;41.80;;;;;;4958119;28;20172;-60
2023/07/09 09:44:04;;;;;;;4.28;4.07;;;45.90;41.50;;;;;;4957870;28;20258;-61
2023/07/09 09:46:32;;;;;;;3.90;3.70;;;46.00;41.40;;;;;;4958182;28;20204;-60
2023/07/09 09:49:02;;;;;;;4.53;4.32;;;45.80;41.40;;;;;;4958294;28;20173;-61
2023/07/09 09:51:28;;;;;;;4.15;3.95;;;45.60;41.30;;;;;;4940728;29;20180;-59
2023/07/09 09:54:02;;;;;;;3.88;3.78;;;45.80;41.00;;;;;;4957796;29;20204;-60
2023/07/09 09:56:27;;;;;;;4.20;4.00;;;46.00;41.00;;;;;;4958006;29;20539;-61
2023/07/09 09:58:55;;;;;;;3.72;3.58;;;46.00;40.60;;;;;;4957959;29;20176;-60
2023/07/09 10:01:29;;;;;;;3.30;3.20;;;46.20;39.30;;;;;;4957998;29;20177;-60
2023/07/09 10:03:57;;;;;;;3.97;3.78;;;46.50;38.60;;;;;;4957588;29;20180;-60
2023/07/09 10:06:35;;;;;;;4.65;4.45;;;46.40;38.50;;;;;;4957600;29;20214;-60
2023/07/09 10:09:24;;;;;;;4.55;4.35;;;46.70;38.10;;;;;;4940629;29;20188;-59
2023/07/09 10:12:19;;;;;;;3.85;3.72;;;47.40;37.60;;;;;;4957661;29;20559;-61
2023/07/09 10:14:59;;;;;;;3.78;3.67;;;48.00;36.00;;;;;;4930793;29;20224;-59
2023/07/09 10:17:57;;;;;;;3.70;3.60;;;48.00;35.50;;;;;;4940388;28;20172;-60
2023/07/09 10:20:40;;;;;;;3.47;3.28;;;48.00;35.20;;;;;;4957456;29;20186;-59
2023/07/09 10:23:27;;;;;;;3.38;3.28;;;47.30;35.30;;;;;;4957586;28;20252;-61
2023/07/09 10:26:04;;;;;;;2.85;2.75;;;46.20;36.20;;;;;;4956580;28;20206;-60
2023/07/09 10:29:18;;;;;;;2.78;2.67;;;46.20;36.10;;;;;;4957470;29;20211;-59
2023/07/09 10:32:01;;;;;;;2.60;2.50;;;46.20;35.70;;;;;;4934748;29;20506;-59
2023/07/09 10:34:39;;;;;;;2.70;2.60;;;46.20;34.90;;;;;;4957166;29;20663;-60
2023/07/09 10:37:39;;;;;;;2.87;2.67;;;45.90;35.80;;;;;;4957170;28;20175;-61
2023/07/09 10:40:10;;;;;;;2.57;2.47;;;45.80;35.70;;;;;;4953859;28;20971;-61
2023/07/09 10:42:42;;;;;;;2.43;2.33;;;45.60;35.90;;;;;;4957297;29;20397;-59
2023/07/09 10:45:14;;;;;;;3.13;2.83;;;45.30;35.40;;;;;;4957028;29;20439;-59
2023/07/09 10:47:44;;;;;;;2.80;2.70;;;44.90;35.80;;;;;;4957157;29;20455;-60
2023/07/09 10:50:17;;;;;;;3.10;2.90;;;44.50;35.90;;;;;;4957089;29;20412;-61
2023/07/09 10:52:46;;;;;;;2.33;2.23;;;44.40;36.20;;;;;;4956995;29;20467;-59
2023/07/09 10:55:16;;;;;;;2.20;2.10;;;44.30;36.10;;;;;;4956501;29;20495;-60
2023/07/09 10:58:05;;;;;;;2.23;2.13;;;44.50;35.90;;;;;;4956954;28;20767;-59
2023/07/09 11:00:39;;;;;;;2.70;2.57;;;44.60;36.20;;;;;;4939630;29;20423;-59
2023/07/09 11:03:29;;;;;;;2.30;2.20;;;44.40;35.60;;;;;;4956818;29;20420;-59
2023/07/09 11:05:55;;;;;;;2.50;2.40;;;43.70;35.70;;;;;;4956633;29;20456;-60
2023/07/09 11:08:35;;;;;;;2.27;2.13;;;43.10;36.60;;;;;;4956793;29;20413;-61
2023/07/09 11:11:10;;;;;;;2.40;2.20;;;42.70;36.20;;;;;;4956729;28;20190;-59
2023/07/09 11:13:43;;;;;;;2.30;2.20;;;42.50;36.80;;;;;;4956331;28;20479;-59
2023/07/09 11:16:19;;;;;;;2.53;2.33;;;42.20;36.50;;;;;;4956359;28;20503;-59
2023/07/09 11:18:55;;;;;;;2.07;1.97;;;41.70;37.00;;;;;;4956508;28;20857;-59
2023/07/09 11:21:21;;;;;;;2.10;2.00;;;40.90;36.90;;;;;;4956505;28;20494;-59
2023/07/09 11:23:51;;;;;;;2.70;2.20;;;40.10;37.40;;;;;;4956170;28;20453;-60
2023/07/09 11:26:31;;;;;;;2.00;1.90;;;39.20;38.00;;;;;;4956184;29;20232;-60
2023/07/09 11:29:08;;;;;;;2.60;2.40;;;38.50;37.50;;;;;;4956437;29;20766;-60
2023/07/09 11:31:35;;;;;;;2.20;2.10;;;38.00;38.80;;;;;;4956178;28;20443;-61
2023/07/09 11:34:10;;;;;;;3.73;2.43;;;37.60;39.30;;;;;;4955719;29;20969;-59
2023/07/09 11:36:48;;;;;;;2.53;2.33;;;37.20;41.10;;;;;;4956052;28;20418;-59
2023/07/09 11:39:30;;;;;;;3.17;2.03;;;36.60;41.10;;;;;;4956267;29;20763;-58
2023/07/09 11:41:56;;;;;;;2.83;2.63;;;36.20;41.80;;;;;;4956160;29;20408;-60
2023/07/09 11:44:28;;;;;;;7.23;2.30;;;35.90;41.90;;;;;;4955657;28;20403;-60
2023/07/09 11:47:14;;;;;;;6.30;2.63;;;35.70;42.00;;;;;;4955927;28;20383;-60
2023/07/09 11:49:47;;;;;;;2.60;2.40;;;35.60;42.20;;;;;;4956214;28;20383;-60
2023/07/09 11:52:14;;;;;;;2.40;2.20;;;35.50;42.30;;;;;;4956044;29;20451;-61
2023/07/09 11:54:41;;;;;;;3.63;2.23;;;35.50;42.10;;;;;;4955559;28;20802;-60
2023/07/09 11:57:12;;;;;;;2.57;2.37;;;35.50;42.40;;;;;;4957621;29;20388;-59
2023/07/09 11:59:39;;;;;;;2.63;2.40;;;35.40;42.40;;;;;;4958640;28;20383;-61
2023/07/09 12:02:09;;;;;;;2.30;2.13;;;35.40;42.90;;;;;;4958336;28;20420;-60
2023/07/09 12:04:35;;;;;;;2.33;2.13;;;35.40;42.40;;;;;;4958800;29;20438;-60
2023/07/09 12:07:03;;;;;;;2.80;1.90;;;35.50;41.90;;;;;;4959174;28;20433;-59
2023/07/09 12:09:37;;;;;;;3.00;2.80;;;35.40;41.60;;;;;;4956705;29;20387;-60
2023/07/09 12:12:02;;;;;;;2.43;2.27;;;35.50;41.90;;;;;;4955946;29;20417;-59
2023/07/09 12:14:28;;;;;;;2.60;2.10;;;35.50;42.40;;;;;;4955375;28;20619;-60
2023/07/09 12:16:54;;;;;;;3.03;2.40;;;35.60;41.50;;;;;;4955874;28;20404;-60
2023/07/09 12:19:23;;;;;;;2.00;1.70;;;35.60;41.80;;;;;;4955531;29;20232;-60
2023/07/09 12:21:53;;;;;;;2.33;2.10;;;35.60;41.80;;;;;;4955444;29;20383;-59
2023/07/09 12:24:22;;;;;;;2.63;2.30;;;35.50;41.80;;;;;;4955155;28;20424;-58
2023/07/09 12:26:55;;;;;;;2.30;2.10;;;35.70;41.50;;;;;;4955761;29;20375;-60
2023/07/09 12:29:25;;;;;;;2.60;2.40;;;35.60;42.20;;;;;;4955609;29;20388;-60
2023/07/09 12:31:51;;;;;;;2.30;2.10;;;35.60;41.90;;;;;;4955681;28;20383;-58
2023/07/09 12:34:16;;;;;;;2.37;2.10;;;35.60;42.00;;;;;;4955009;29;20463;-59
2023/07/09 12:36:46;;;;;;;2.90;2.07;;;35.50;42.20;;;;;;4938201;29;20539;-59
2023/07/09 12:39:13;;;;;;;2.93;2.27;;;35.40;42.70;;;;;;4955441;29;20247;-59
2023/07/09 12:41:41;;;;;;;2.53;2.33;;;35.30;43.00;;;;;;4955494;28;20865;-58
2023/07/09 12:44:19;;;;;;;3.03;2.07;;;35.30;42.90;;;;;;4955075;29;20398;-59
2023/07/09 12:46:46;;;;;;;2.40;2.20;;;35.40;42.20;;;;;;4955441;29;20471;-61
2023/07/09 12:49:31;;;;;;;1.90;1.70;;;35.40;42.30;;;;;;4956668;28;20421;-60
2023/07/09 12:52:03;;;;;;;2.40;1.93;;;35.30;42.20;;;;;;4958893;28;20440;-59
2023/07/09 12:54:30;;;;;;;2.40;2.10;;;35.20;42.20;;;;;;4957533;29;20444;-60
2023/07/09 12:56:58;;;;;;;3.43;2.77;;;35.20;42.70;;;;;;4958939;29;20878;-60
2023/07/09 12:59:36;;;;;;;2.80;2.27;;;35.30;42.80;;;;;;4958948;29;20490;-59
2023/07/09 13:02:24;;;;;;;2.43;2.23;;;35.30;42.50;;;;;;4958802;29;20460;-60
2023/07/09 13:04:57;;;;;;;2.33;2.00;;;35.50;42.90;;;;;;4958690;28;20403;-60
2023/07/09 13:07:23;;;;;;;2.20;2.00;;;35.50;42.50;;;;;;4958727;29;20403;-57
2023/07/09 13:09:52;;;;;;;1.70;1.60;;;35.60;42.40;;;;;;4958798;29;20382;-57
2023/07/09 13:12:20;;;;;;;2.60;2.40;;;35.60;41.80;;;;;;4958656;28;20253;-60
2023/07/09 13:14:55;;;;;;;4.30;2.00;;;35.60;42.20;;;;;;4958247;28;20410;-60
2023/07/09 13:17:21;;;;;;;3.07;2.87;;;35.60;42.20;;;;;;4958851;29;20410;-59
2023/07/09 13:19:47;;;;;;;2.40;2.13;;;35.70;41.60;;;;;;4958774;29;20426;-59
2023/07/09 13:22:15;;;;;;;2.00;1.87;;;35.80;42.30;;;;;;4958649;28;20287;-59
2023/07/09 13:24:40;;;;;;;2.63;2.43;;;35.90;41.70;;;;;;4958019;28;20200;-59
2023/07/09 13:27:11;;;;;;;2.60;2.40;;;36.00;41.80;;;;;;4958514;28;20397;-60
2023/07/09 13:29:39;;;;;;;2.60;2.40;;;36.10;41.50;;;;;;4958879;28;20176;-60
2023/07/09 13:32:11;;;;;;;2.30;2.20;;;36.10;41.90;;;;;;4958459;29;20416;-60
2023/07/09 13:34:39;;;;;;;1.80;1.70;;;36.20;41.40;;;;;;4957968;28;20854;-60
2023/07/09 13:37:06;;;;;;;2.47;2.27;;;36.20;40.90;;;;;;4958304;28;20392;-60
2023/07/09 13:39:31;;;;;;;2.50;2.40;;;36.20;40.80;;;;;;4958349;28;20419;-59
2023/07/09 13:41:57;;;;;;;1.70;1.60;;;36.30;41.30;;;;;;4958360;29;20882;-60
2023/07/09 13:44:28;;;;;;;2.50;2.30;;;36.40;41.30;;;;;;4958278;29;20606;-60
2023/07/09 13:46:55;;;;;;;2.70;2.27;;;36.40;41.10;;;;;;4958294;29;20663;-59
2023/07/09 13:49:24;;;;;;;2.43;2.20;;;36.40;41.00;;;;;;4958208;29;20790;-59
2023/07/09 13:51:51;;;;;;;2.00;1.80;;;36.40;40.80;;;;;;4957821;29;20962;-58
2023/07/09 13:54:35;;;;;;;3.53;2.20;;;36.40;39.10;;;;;;4957447;29;20948;-58
2023/07/09 13:57:01;;;;;;;1.60;1.50;;;36.40;39.10;;;;;;4958037;28;20421;-60
2023/07/09 13:59:28;;;;;;;3.53;1.90;;;36.50;38.40;;;;;;4957975;28;20412;-59
2023/07/09 14:01:56;;;;;;;2.43;2.20;;;36.40;37.20;;;;;;4957934;29;20395;-58
2023/07/09 14:04:23;;;;;;;4.70;2.03;;;36.30;38.30;;;;;;4957309;29;20419;-59
2023/07/09 14:06:48;;;;;;;1.70;1.60;;;36.30;37.70;;;;;;4957423;29;20440;-58
2023/07/09 14:09:15;;;;;;;2.70;2.50;;;36.30;38.40;;;;;;4957907;29;20523;-57
2023/07/09 14:12:01;;;;;;;2.10;2.00;;;36.30;38.30;;;;;;4957638;29;20706;-61
2023/07/09 14:14:32;;;;;;;1.60;1.50;;;36.40;37.60;;;;;;4957270;29;20409;-59
2023/07/09 14:16:59;;;;;;;1.70;1.60;;;36.40;37.30;;;;;;4957557;28;20386;-59
2023/07/09 14:19:25;;;;;;;2.40;1.80;;;36.30;37.90;;;;;;4957717;29;20383;-59
2023/07/09 14:21:52;;;;;;;1.63;1.53;;;36.30;38.00;;;;;;4957432;29;20422;-60
2023/07/09 14:24:26;;;;;;;1.93;1.73;;;36.20;38.00;;;;;;4957113;28;20405;-60
2023/07/09 14:26:53;;;;;;;1.90;1.80;;;36.30;38.80;;;;;;4957531;29;20397;-60
2023/07/09 14:29:20;;;;;;;2.60;1.70;;;36.30;38.70;;;;;;4957430;28;20479;-60
2023/07/09 14:31:47;;;;;;;1.83;1.73;;;36.30;38.40;;;;;;4957090;29;20467;-60
2023/07/09 14:34:24;;;;;;;1.83;1.70;;;36.30;38.10;;;;;;4956692;28;20453;-60
2023/07/09 14:36:52;;;;;;;1.83;1.73;;;36.10;38.40;;;;;;4957240;29;20388;-58
2023/07/09 14:39:18;;;;;;;2.57;2.37;;;36.00;38.00;;;;;;4940038;29;20387;-60
2023/07/09 14:41:44;;;;;;;2.67;1.90;;;35.90;38.40;;;;;;4957316;28;20835;-60
2023/07/09 14:44:30;;;;;;;2.60;2.10;;;35.80;39.00;;;;;;4956716;28;20500;-59
2023/07/09 14:46:58;;;;;;;2.57;1.60;;;35.80;39.80;;;;;;4957148;29;20173;-58
2023/07/09 14:49:25;;;;;;;2.07;1.70;;;35.80;39.20;;;;;;4957059;29;20482;-58
2023/07/09 14:51:51;;;;;;;1.90;1.80;;;35.80;39.40;;;;;;4956939;28;20934;-58
2023/07/09 14:54:35;;;;;;;2.50;2.37;;;35.90;39.50;;;;;;4956323;28;20442;-58
2023/07/09 14:57:18;;;;;;;1.70;1.60;;;36.00;39.90;;;;;;4956967;28;20420;-60
2023/07/09 14:59:43;;;;;;;2.33;2.17;;;36.10;40.60;;;;;;4956947;29;20437;-59
2023/07/09 15:02:36;;;;;;;2.50;2.30;;;36.20;40.50;;;;;;4956967;29;20811;-59
2023/07/09 15:05:03;;;;;;;2.20;2.00;;;36.40;40.40;;;;;;4956281;29;20200;-59
2023/07/09 15:07:31;;;;;;;2.60;2.40;;;36.50;40.60;;;;;;4956441;29;20399;-59
2023/07/09 15:09:59;;;;;;;2.93;2.63;;;36.60;39.90;;;;;;4957154;29;20424;-58
2023/07/09 15:12:29;;;;;;;2.63;2.43;;;36.70;39.30;;;;;;4956022;28;20448;-59
2023/07/09 15:15:19;;;;;;;2.27;2.07;;;36.70;39.30;;;;;;4956212;28;20448;-60
2023/07/09 15:17:45;;;;;;;3.43;1.50;;;36.60;39.40;;;;;;4946042;28;20457;-59
2023/07/09 15:20:26;;;;;;;2.60;2.40;;;36.60;40.10;;;;;;4939208;29;20420;-59
2023/07/09 15:22:54;;;;;;;2.43;2.23;;;36.50;39.60;;;;;;4956490;29;20782;-59
2023/07/09 15:25:22;;;;;;;2.83;2.63;;;36.50;40.30;;;;;;4956071;29;20459;-61
2023/07/09 15:27:48;;;;;;;2.97;2.77;;;36.40;40.80;;;;;;4956281;28;20376;-60
2023/07/09 15:30:22;;;;;;;3.20;2.90;;;36.40;41.30;;;;;;4956166;28;20428;-59
2023/07/09 15:32:49;;;;;;;2.40;1.97;;;36.30;41.70;;;;;;4956161;29;20192;-58
2023/07/09 15:35:19;;;;;;;2.67;2.47;;;36.20;42.30;;;;;;4955977;28;20424;-61
2023/07/09 15:37:49;;;;;;;2.17;2.07;;;36.10;42.40;;;;;;4956301;29;20372;-58
2023/07/09 15:40:28;;;;;;;2.40;2.30;;;36.00;42.70;;;;;;4955947;29;20383;-60
2023/07/09 15:42:58;;;;;;;2.50;2.30;;;35.80;42.40;;;;;;4955905;29;20416;-61
2023/07/09 15:45:24;;;;;;;3.80;2.37;;;35.70;42.30;;;;;;4955766;28;20468;-59
2023/07/09 15:47:51;;;;;;;1.97;1.80;;;35.50;42.70;;;;;;4956215;28;20509;-60
2023/07/09 15:50:27;;;;;;;2.57;2.37;;;35.50;43.20;;;;;;4956054;28;20173;-58
2023/07/09 15:52:54;;;;;;;2.63;1.87;;;35.40;43.20;;;;;;4955904;28;20426;-59
2023/07/09 15:55:23;;;;;;;2.23;2.10;;;35.40;43.20;;;;;;4955367;29;20415;-60
2023/07/09 15:57:51;;;;;;;2.33;2.13;;;35.30;43.40;;;;;;4955814;28;20397;-60
2023/07/09 16:00:27;;;;;;;2.80;2.60;;;35.30;42.90;;;;;;4955831;29;20379;-59
2023/07/09 16:02:53;;;;;;;2.43;2.13;;;35.30;42.40;;;;;;4955898;28;20426;-59
2023/07/09 16:05:24;;;;;;;2.80;2.60;;;35.30;42.10;;;;;;4955218;28;20472;-59
2023/07/09 16:07:51;;;;;;;1.97;1.87;;;35.30;42.60;;;;;;4955429;29;20452;-61
2023/07/09 16:10:18;;;;;;;2.53;2.00;;;35.40;42.90;;;;;;4955731;28;20496;-59
2023/07/09 16:12:45;;;;;;;2.23;2.03;;;35.40;41.70;;;;;;4938284;29;20510;-59
2023/07/09 16:15:14;;;;;;;2.37;2.17;;;35.40;42.00;;;;;;4955344;29;20787;-60
2023/07/09 16:17:44;;;;;;;2.10;2.00;;;35.30;42.20;;;;;;4955498;29;20922;-60
2023/07/09 16:20:12;;;;;;;1.80;1.70;;;35.30;42.40;;;;;;4955733;28;20445;-59
2023/07/09 16:22:43;;;;;;;2.17;1.97;;;35.30;42.20;;;;;;4955278;28;20379;-58
2023/07/09 16:25:13;;;;;;;2.13;1.93;;;35.30;42.40;;;;;;4954628;29;20436;-60
2023/07/09 16:27:39;;;;;;;1.80;1.70;;;35.20;42.60;;;;;;4955564;29;20434;-59
2023/07/09 16:30:17;;;;;;;2.60;2.40;;;35.10;42.60;;;;;;4955345;28;20934;-62
2023/07/09 16:32:44;;;;;;;1.90;1.73;;;35.00;42.50;;;;;;4955421;29;20544;-61
2023/07/09 16:35:15;;;;;;;2.60;2.40;;;35.00;42.50;;;;;;4954897;28;20443;-58
2023/07/09 16:37:41;;;;;;;2.87;2.40;;;34.90;42.90;;;;;;4955406;29;20383;-61
2023/07/09 16:40:15;;;;;;;1.90;1.80;;;34.80;42.80;;;;;;4955307;29;20433;-58
2023/07/09 16:42:41;;;;;;;2.37;2.17;;;34.80;42.60;;;;;;4955302;28;20391;-59
2023/07/09 16:45:07;;;;;;;1.83;1.73;;;34.70;42.70;;;;;;4954740;29;20413;-61
2023/07/09 16:47:34;;;;;;;5.77;2.20;;;34.50;42.80;;;;;;4955313;28;20427;-57
2023/07/09 16:49:59;;;;;;;2.53;2.30;;;34.50;42.60;;;;;;4955085;29;20428;-59
2023/07/09 16:52:26;;;;;;;2.63;2.27;;;34.50;42.90;;;;;;4955230;29;20451;-61
2023/07/09 16:54:54;;;;;;;2.13;2.03;;;34.40;43.10;;;;;;4954774;28;20275;-59
2023/07/09 16:57:26;;;;;;;3.40;2.30;;;34.40;43.50;;;;;;4955087;29;20387;-60
2023/07/09 16:59:52;;;;;;;2.07;1.90;;;34.40;43.90;;;;;;4955160;29;20387;-59
2023/07/09 17:02:27;;;;;;;2.00;1.90;;;34.30;44.10;;;;;;4955354;29;20415;-60
2023/07/09 17:04:56;;;;;;;2.10;1.90;;;34.30;44.20;;;;;;4954608;29;20427;-60